sensor_id;sensor_type;location;lat;lon;timestamp;pressure;altitude;pressure_sealevel;temperature;humidity
15932;BME280;8065;49.520;11.284;2023-04-08T00:02:12;97621.16;;;9.97;67.66
15932;BME280;8065;49.520;11.284;2023-04-08T00:04:38;97613.50;;;9.95;67.04
15932;BME280;8065;49.520;11.284;2023-04-08T00:07:05;97622.53;;;9.94;67.72
15932;BME280;8065;49.520;11.284;2023-04-08T00:09:32;97620.34;;;9.96;68.08
15932;BME280;8065;49.520;11.284;2023-04-08T00:11:58;97625.50;;;9.93;68.41
15932;BME280;8065;49.520;11.284;2023-04-08T00:14:26;97618.91;;;9.73;67.74
15932;BME280;8065;49.520;11.284;2023-04-08T00:16:53;97616.19;;;9.56;68.30
15932;BME280;8065;49.520;11.284;2023-04-08T00:19:20;97619.28;;;9.40;67.87
15932;BME280;8065;49.520;11.284;2023-04-08T00:21:46;97616.13;;;9.30;68.37
15932;BME280;8065;49.520;11.284;2023-04-08T00:24:13;97626.47;;;9.09;67.76
15932;BME280;8065;49.520;11.284;2023-04-08T00:26:40;97623.59;;;8.97;67.99
15932;BME280;8065;49.520;11.284;2023-04-08T00:29:06;97620.56;;;8.90;68.63
15932;BME280;8065;49.520;11.284;2023-04-08T00:31:34;97619.00;;;8.88;68.20
15932;BME280;8065;49.520;11.284;2023-04-08T00:34:01;97618.50;;;9.09;67.78
15932;BME280;8065;49.520;11.284;2023-04-08T00:36:27;97623.81;;;9.09;67.82
15932;BME280;8065;49.520;11.284;2023-04-08T00:38:54;97626.81;;;9.16;67.34
15932;BME280;8065;49.520;11.284;2023-04-08T00:41:20;97625.38;;;9.10;67.68
15932;BME280;8065;49.520;11.284;2023-04-08T00:43:47;97626.81;;;9.16;67.36
15932;BME280;8065;49.520;11.284;2023-04-08T00:46:14;97628.97;;;9.14;67.65
15932;BME280;8065;49.520;11.284;2023-04-08T00:48:42;97630.97;;;9.08;68.60
15932;BME280;8065;49.520;11.284;2023-04-08T00:51:08;97625.88;;;8.90;67.40
15932;BME280;8065;49.520;11.284;2023-04-08T00:53:35;97642.09;;;8.66;68.38
15932;BME280;8065;49.520;11.284;2023-04-08T00:56:02;97631.75;;;8.56;69.06
15932;BME280;8065;49.520;11.284;2023-04-08T00:58:28;97628.63;;;8.53;68.68
15932;BME280;8065;49.520;11.284;2023-04-08T01:00:59;97638.78;;;8.60;68.35
15932;BME280;8065;49.520;11.284;2023-04-08T01:03:35;97633.50;;;8.60;69.03
15932;BME280;8065;49.520;11.284;2023-04-08T01:06:12;97636.16;;;8.60;68.00
15932;BME280;8065;49.520;11.284;2023-04-08T01:08:40;97638.78;;;8.60;68.19
15932;BME280;8065;49.520;11.284;2023-04-08T01:11:09;97638.91;;;8.55;67.59
15932;BME280;8065;49.520;11.284;2023-04-08T01:13:39;97633.00;;;8.58;68.27
15932;BME280;8065;49.520;11.284;2023-04-08T01:16:08;97635.88;;;8.70;68.02
15932;BME280;8065;49.520;11.284;2023-04-08T01:18:36;97642.94;;;8.75;67.52
15932;BME280;8065;49.520;11.284;2023-04-08T01:21:06;97639.84;;;8.81;67.01
15932;BME280;8065;49.520;11.284;2023-04-08T01:23:39;97647.31;;;8.79;67.64
15932;BME280;8065;49.520;11.284;2023-04-08T01:26:09;97645.34;;;8.85;68.07
15932;BME280;8065;49.520;11.284;2023-04-08T01:28:36;97641.00;;;8.67;68.99
15932;BME280;8065;49.520;11.284;2023-04-08T01:31:05;97639.63;;;8.69;68.74
15932;BME280;8065;49.520;11.284;2023-04-08T01:33:32;97628.44;;;8.50;69.25
15932;BME280;8065;49.520;11.284;2023-04-08T01:36:00;97633.97;;;8.40;70.28
15932;BME280;8065;49.520;11.284;2023-04-08T01:38:29;97644.19;;;8.33;70.22
15932;BME280;8065;49.520;11.284;2023-04-08T01:40:56;97633.00;;;8.22;69.97
15932;BME280;8065;49.520;11.284;2023-04-08T01:43:26;97639.66;;;8.19;70.49
15932;BME280;8065;49.520;11.284;2023-04-08T01:45:53;97640.63;;;8.23;69.57
15932;BME280;8065;49.520;11.284;2023-04-08T01:48:23;97639.47;;;8.16;70.89
15932;BME280;8065;49.520;11.284;2023-04-08T01:53:15;97643.41;;;8.05;70.99
15932;BME280;8065;49.520;11.284;2023-04-08T01:55:43;97642.63;;;8.04;71.05
15932;BME280;8065;49.520;11.284;2023-04-08T01:58:14;97639.50;;;8.02;70.19
15932;BME280;8065;49.520;11.284;2023-04-08T02:00:44;97640.47;;;8.06;68.77
15932;BME280;8065;49.520;11.284;2023-04-08T02:03:11;97640.31;;;7.89;70.51
15932;BME280;8065;49.520;11.284;2023-04-08T02:05:38;97640.78;;;7.91;69.68
15932;BME280;8065;49.520;11.284;2023-04-08T02:08:05;97640.31;;;7.89;70.01
15932;BME280;8065;49.520;11.284;2023-04-08T02:10:32;97642.34;;;7.92;70.10
15932;BME280;8065;49.520;11.284;2023-04-08T02:12:58;97641.88;;;7.90;70.40
15932;BME280;8065;49.520;11.284;2023-04-08T02:15:28;97642.47;;;7.87;70.96
15932;BME280;8065;49.520;11.284;2023-04-08T02:18:06;97641.09;;;7.89;71.25
15932;BME280;8065;49.520;11.284;2023-04-08T02:20:37;97643.81;;;8.12;70.03
15932;BME280;8065;49.520;11.284;2023-04-08T02:23:09;97640.25;;;8.16;69.27
15932;BME280;8065;49.520;11.284;2023-04-08T02:25:41;97644.84;;;8.25;69.25
15932;BME280;8065;49.520;11.284;2023-04-08T02:28:10;97642.41;;;8.28;69.55
15932;BME280;8065;49.520;11.284;2023-04-08T02:30:40;97644.13;;;8.46;68.54
15932;BME280;8065;49.520;11.284;2023-04-08T02:33:10;97649.63;;;8.50;69.04
15932;BME280;8065;49.520;11.284;2023-04-08T02:35:37;97644.13;;;8.46;68.36
15932;BME280;8065;49.520;11.284;2023-04-08T02:38:05;97645.28;;;8.54;68.91
15932;BME280;8065;49.520;11.284;2023-04-08T02:40:33;97643.94;;;8.43;69.51
15932;BME280;8065;49.520;11.284;2023-04-08T02:43:00;97649.66;;;8.36;70.37
15932;BME280;8065;49.520;11.284;2023-04-08T02:45:29;97645.63;;;8.39;69.83
15932;BME280;8065;49.520;11.284;2023-04-08T02:47:56;97646.50;;;8.48;69.31
15932;BME280;8065;49.520;11.284;2023-04-08T02:50:24;97652.94;;;8.56;68.92
15932;BME280;8065;49.520;11.284;2023-04-08T02:52:50;97659.84;;;8.43;70.29
15932;BME280;8065;49.520;11.284;2023-04-08T02:55:17;97660.13;;;8.41;70.53
15932;BME280;8065;49.520;11.284;2023-04-08T02:57:45;97652.63;;;8.57;70.01
15932;BME280;8065;49.520;11.284;2023-04-08T03:00:12;97654.53;;;8.43;70.75
15932;BME280;8065;49.520;11.284;2023-04-08T03:02:39;97653.94;;;8.46;70.46
15932;BME280;8065;49.520;11.284;2023-04-08T03:05:07;97653.56;;;8.39;70.79
15932;BME280;8065;49.520;11.284;2023-04-08T03:07:35;97654.34;;;8.26;71.09
15932;BME280;8065;49.520;11.284;2023-04-08T03:10:02;97654.09;;;8.13;72.35
15932;BME280;8065;49.520;11.284;2023-04-08T03:12:29;97659.28;;;8.18;72.18
15932;BME280;8065;49.520;11.284;2023-04-08T03:14:55;97654.34;;;8.26;71.59
15932;BME280;8065;49.520;11.284;2023-04-08T03:17:22;97661.03;;;8.23;71.58
15932;BME280;8065;49.520;11.284;2023-04-08T03:19:48;97654.56;;;8.29;71.57
15932;BME280;8065;49.520;11.284;2023-04-08T03:22:15;97656.72;;;8.41;70.75
15932;BME280;8065;49.520;11.284;2023-04-08T03:24:43;97656.41;;;8.42;71.46
15932;BME280;8065;49.520;11.284;2023-04-08T03:27:09;97664.53;;;8.46;71.55
15932;BME280;8065;49.520;11.284;2023-04-08T03:29:36;97669.06;;;8.45;71.37
15932;BME280;8065;49.520;11.284;2023-04-08T03:32:03;97669.84;;;8.46;71.89
15932;BME280;8065;49.520;11.284;2023-04-08T03:34:30;97664.16;;;8.39;72.17
15932;BME280;8065;49.520;11.284;2023-04-08T03:36:56;97672.38;;;8.51;71.96
15932;BME280;8065;49.520;11.284;2023-04-08T03:39:23;97667.66;;;8.48;71.72
15932;BME280;8065;49.520;11.284;2023-04-08T03:41:51;97666.31;;;8.37;73.09
15932;BME280;8065;49.520;11.284;2023-04-08T03:44:17;97668.38;;;8.26;74.08
15932;BME280;8065;49.520;11.284;2023-04-08T03:46:44;97663.97;;;8.21;73.69
15932;BME280;8065;49.520;11.284;2023-04-08T03:49:11;97669.75;;;8.23;73.46
15932;BME280;8065;49.520;11.284;2023-04-08T03:51:37;97672.13;;;8.11;72.58
15932;BME280;8065;49.520;11.284;2023-04-08T03:54:04;97679.97;;;8.03;73.33
15932;BME280;8065;49.520;11.284;2023-04-08T03:56:32;97679.09;;;8.07;73.03
15932;BME280;8065;49.520;11.284;2023-04-08T03:58:59;97679.59;;;8.09;73.76
15932;BME280;8065;49.520;11.284;2023-04-08T04:01:26;97677.69;;;8.23;72.89
15932;BME280;8065;49.520;11.284;2023-04-08T04:03:53;97682.41;;;8.27;72.33
15932;BME280;8065;49.520;11.284;2023-04-08T04:06:19;97674.28;;;8.23;72.45
15932;BME280;8065;49.520;11.284;2023-04-08T04:08:46;97678.28;;;8.20;72.21
15932;BME280;8065;49.520;11.284;2023-04-08T04:11:14;97680.66;;;8.08;72.28
15932;BME280;8065;49.520;11.284;2023-04-08T04:13:40;97678.88;;;8.17;71.54
15932;BME280;8065;49.520;11.284;2023-04-08T04:16:08;97680.84;;;8.12;71.28
15932;BME280;8065;49.520;11.284;2023-04-08T04:18:35;97678.78;;;8.22;70.78
15932;BME280;8065;49.520;11.284;2023-04-08T04:21:04;97688.66;;;8.31;70.51
15932;BME280;8065;49.520;11.284;2023-04-08T04:23:30;97684.56;;;8.25;70.71
15932;BME280;8065;49.520;11.284;2023-04-08T04:25:57;97689.06;;;8.24;70.69
15932;BME280;8065;49.520;11.284;2023-04-08T04:28:23;97689.84;;;8.25;70.67
15932;BME280;8065;49.520;11.284;2023-04-08T04:30:50;97692.81;;;8.37;70.20
15932;BME280;8065;49.520;11.284;2023-04-08T04:33:18;97684.94;;;8.45;70.40
15932;BME280;8065;49.520;11.284;2023-04-08T04:35:46;97692.00;;;8.50;69.11
15932;BME280;8065;49.520;11.284;2023-04-08T04:38:12;97694.16;;;8.48;69.03
15932;BME280;8065;49.520;11.284;2023-04-08T04:40:39;97694.53;;;8.55;69.03
15932;BME280;8065;49.520;11.284;2023-04-08T04:43:05;97698.19;;;8.45;68.77
15932;BME280;8065;49.520;11.284;2023-04-08T04:45:32;97695.91;;;8.52;69.17
15932;BME280;8065;49.520;11.284;2023-04-08T04:47:59;97700.91;;;8.54;68.11
15932;BME280;8065;49.520;11.284;2023-04-08T04:50:27;97706.47;;;8.66;67.53
15932;BME280;8065;49.520;11.284;2023-04-08T04:52:53;97712.00;;;8.78;67.44
15932;BME280;8065;49.520;11.284;2023-04-08T04:55:20;97707.34;;;8.84;67.59
15932;BME280;8065;49.520;11.284;2023-04-08T04:57:46;97706.47;;;8.88;66.69
15932;BME280;8065;49.520;11.284;2023-04-08T05:00:13;97707.47;;;8.79;68.86
15932;BME280;8065;49.520;11.284;2023-04-08T05:02:40;97710.38;;;8.91;68.48
15932;BME280;8065;49.520;11.284;2023-04-08T05:05:07;97712.06;;;8.87;69.68
15932;BME280;8065;49.520;11.284;2023-04-08T05:07:36;97717.06;;;8.88;69.66
15932;BME280;8065;49.520;11.284;2023-04-08T05:10:03;97715.38;;;8.93;69.16
15932;BME280;8065;49.520;11.284;2023-04-08T05:12:29;97716.56;;;8.86;71.00
15932;BME280;8065;49.520;11.284;2023-04-08T05:14:57;97719.94;;;8.78;70.56
15932;BME280;8065;49.520;11.284;2023-04-08T05:17:23;97716.56;;;8.86;70.13
15932;BME280;8065;49.520;11.284;2023-04-08T05:19:50;97721.88;;;8.86;70.87
15932;BME280;8065;49.520;11.284;2023-04-08T05:22:17;97721.28;;;8.90;70.89
15932;BME280;8065;49.520;11.284;2023-04-08T05:24:45;97721.03;;;9.00;71.08
15932;BME280;8065;49.520;11.284;2023-04-08T05:27:12;97728.28;;;9.08;71.14
15932;BME280;8065;49.520;11.284;2023-04-08T05:29:38;97734.16;;;9.05;70.89
15932;BME280;8065;49.520;11.284;2023-04-08T05:32:05;97732.19;;;9.10;70.55
15932;BME280;8065;49.520;11.284;2023-04-08T05:34:32;97733.44;;;9.13;71.38
15932;BME280;8065;49.520;11.284;2023-04-08T05:36:58;97735.97;;;9.18;70.98
15932;BME280;8065;49.520;11.284;2023-04-08T05:39:25;97740.09;;;9.24;70.61
15932;BME280;8065;49.520;11.284;2023-04-08T05:41:53;97732.91;;;9.25;71.19
15932;BME280;8065;49.520;11.284;2023-04-08T05:44:19;97742.59;;;9.29;72.11
15932;BME280;8065;49.520;11.284;2023-04-08T05:46:46;97739.97;;;9.29;72.31
15932;BME280;8065;49.520;11.284;2023-04-08T05:49:12;97744.34;;;9.11;73.59
15932;BME280;8065;49.520;11.284;2023-04-08T05:51:39;97747.91;;;9.07;73.75
15932;BME280;8065;49.520;11.284;2023-04-08T05:54:06;97749.09;;;9.01;74.43
15932;BME280;8065;49.520;11.284;2023-04-08T05:56:33;97744.53;;;8.93;76.38
15932;BME280;8065;49.520;11.284;2023-04-08T05:59:01;97757.63;;;8.75;77.05
15932;BME280;8065;49.520;11.284;2023-04-08T06:01:28;97754.13;;;8.66;78.35
15932;BME280;8065;49.520;11.284;2023-04-08T06:03:54;97763.28;;;8.82;77.00
15932;BME280;8065;49.520;11.284;2023-04-08T06:06:21;97762.59;;;8.91;77.08
15932;BME280;8065;49.520;11.284;2023-04-08T06:08:47;97764.03;;;8.97;75.52
15932;BME280;8065;49.520;11.284;2023-04-08T06:11:14;97759.53;;;8.97;77.73
15932;BME280;8065;49.520;11.284;2023-04-08T06:13:41;97762.66;;;8.99;76.35
15932;BME280;8065;49.520;11.284;2023-04-08T06:16:13;97755.59;;;8.95;77.57
15932;BME280;8065;49.520;11.284;2023-04-08T06:18:41;97767.06;;;9.04;77.45
15932;BME280;8065;49.520;11.284;2023-04-08T06:21:08;97769.53;;;9.00;77.96
15932;BME280;8065;49.520;11.284;2023-04-08T06:23:35;97769.72;;;9.04;77.72
15932;BME280;8065;49.520;11.284;2023-04-08T06:26:02;97780.38;;;8.76;79.99
15932;BME280;8065;49.520;11.284;2023-04-08T06:28:29;97780.09;;;8.78;80.66
15932;BME280;8065;49.520;11.284;2023-04-08T06:30:55;97769.56;;;8.86;78.93
15932;BME280;8065;49.520;11.284;2023-04-08T06:33:23;97773.69;;;8.93;78.59
15932;BME280;8065;49.520;11.284;2023-04-08T06:35:50;97774.38;;;8.84;79.01
15932;BME280;8065;49.520;11.284;2023-04-08T06:38:17;97775.44;;;8.97;79.11
15932;BME280;8065;49.520;11.284;2023-04-08T06:40:43;97781.03;;;8.96;78.86
15932;BME280;8065;49.520;11.284;2023-04-08T06:43:10;97784.94;;;8.98;79.52
15932;BME280;8065;49.520;11.284;2023-04-08T06:45:36;97791.50;;;9.01;79.27
15932;BME280;8065;49.520;11.284;2023-04-08T06:48:03;97787.59;;;8.98;79.51
15932;BME280;8065;49.520;11.284;2023-04-08T06:50:32;97790.28;;;8.84;81.29
15932;BME280;8065;49.520;11.284;2023-04-08T06:52:58;97787.53;;;8.90;81.65
15932;BME280;8065;49.520;11.284;2023-04-08T06:55:25;97793.75;;;8.71;82.15
15932;BME280;8065;49.520;11.284;2023-04-08T06:57:52;97796.56;;;8.75;82.02
15932;BME280;8065;49.520;11.284;2023-04-08T07:00:18;97792.94;;;8.84;81.71
15932;BME280;8065;49.520;11.284;2023-04-08T07:02:45;97801.69;;;8.71;81.41
15932;BME280;8065;49.520;11.284;2023-04-08T07:05:11;97806.94;;;8.49;83.21
15932;BME280;8065;49.520;11.284;2023-04-08T07:07:39;97811.78;;;8.69;81.94
15932;BME280;8065;49.520;11.284;2023-04-08T07:10:06;97821.44;;;8.65;82.11
15932;BME280;8065;49.520;11.284;2023-04-08T07:12:33;97825.88;;;8.56;82.82
15932;BME280;8065;49.520;11.284;2023-04-08T07:14:59;97825.38;;;8.54;82.60
15932;BME280;8065;49.520;11.284;2023-04-08T07:17:26;97814.59;;;8.64;82.82
15932;BME280;8065;49.520;11.284;2023-04-08T07:19:52;97816.50;;;8.72;82.19
15932;BME280;8065;49.520;11.284;2023-04-08T07:22:20;97825.00;;;8.47;83.88
15932;BME280;8065;49.520;11.284;2023-04-08T07:24:48;97827.94;;;8.59;83.36
15932;BME280;8065;49.520;11.284;2023-04-08T07:27:14;97826.94;;;8.41;83.27
15932;BME280;8065;49.520;11.284;2023-04-08T07:29:42;97835.78;;;8.37;84.81
15932;BME280;8065;49.520;11.284;2023-04-08T07:32:09;97826.34;;;8.44;83.55
15932;BME280;8065;49.520;11.284;2023-04-08T07:34:35;97838.09;;;8.25;85.06
15932;BME280;8065;49.520;11.284;2023-04-08T07:37:02;97837.25;;;8.43;84.13
15932;BME280;8065;49.520;11.284;2023-04-08T07:39:28;97833.44;;;8.49;84.24
15932;BME280;8065;49.520;11.284;2023-04-08T07:41:56;97841.66;;;8.61;83.33
15932;BME280;8065;49.520;11.284;2023-04-08T07:44:23;97845.50;;;8.55;84.26
15932;BME280;8065;49.520;11.284;2023-04-08T07:46:49;97840.00;;;8.65;82.76
15932;BME280;8065;49.520;11.284;2023-04-08T07:49:16;97844.66;;;8.68;82.49
15932;BME280;8065;49.520;11.284;2023-04-08T07:51:43;97853.00;;;8.75;82.22
15932;BME280;8065;49.520;11.284;2023-04-08T07:54:09;97849.28;;;8.76;82.58
15932;BME280;8065;49.520;11.284;2023-04-08T07:56:36;97847.31;;;8.68;83.31
15932;BME280;8065;49.520;11.284;2023-04-08T07:59:05;97850.94;;;8.72;82.76
15932;BME280;8065;49.520;11.284;2023-04-08T08:01:32;97848.56;;;8.84;81.46
15932;BME280;8065;49.520;11.284;2023-04-08T08:04:00;97852.63;;;8.68;82.27
15932;BME280;8065;49.520;11.284;2023-04-08T08:06:26;97856.34;;;8.67;82.40
15932;BME280;8065;49.520;11.284;2023-04-08T08:08:53;97859.13;;;8.62;84.00
15932;BME280;8065;49.520;11.284;2023-04-08T08:11:19;97856.41;;;8.90;82.08
15932;BME280;8065;49.520;11.284;2023-04-08T08:13:46;97857.28;;;8.99;80.64
15932;BME280;8065;49.520;11.284;2023-04-08T08:16:14;97857.69;;;8.92;82.14
15932;BME280;8065;49.520;11.284;2023-04-08T08:18:41;97864.25;;;8.95;82.55
15932;BME280;8065;49.520;11.284;2023-04-08T08:21:08;97867.09;;;8.98;81.59
15932;BME280;8065;49.520;11.284;2023-04-08T08:23:34;97864.66;;;9.02;82.23
15932;BME280;8065;49.520;11.284;2023-04-08T08:26:02;97866.09;;;9.08;81.70
15932;BME280;8065;49.520;11.284;2023-04-08T08:28:30;97871.19;;;9.18;81.66
15932;BME280;8065;49.520;11.284;2023-04-08T08:30:57;97864.28;;;9.31;81.78
15932;BME280;8065;49.520;11.284;2023-04-08T08:33:24;97871.50;;;9.16;81.68
15932;BME280;8065;49.520;11.284;2023-04-08T08:35:51;97871.41;;;9.08;81.83
15932;BME280;8065;49.520;11.284;2023-04-08T08:38:18;97875.34;;;8.97;82.11
15932;BME280;8065;49.520;11.284;2023-04-08T08:40:44;97870.09;;;9.19;81.53
15932;BME280;8065;49.520;11.284;2023-04-08T08:43:11;97871.16;;;9.32;80.84
15932;BME280;8065;49.520;11.284;2023-04-08T08:45:38;97872.19;;;9.44;81.52
15932;BME280;8065;49.520;11.284;2023-04-08T08:48:05;97877.78;;;9.65;80.93
15932;BME280;8065;49.520;11.284;2023-04-08T08:50:34;97875.50;;;9.72;79.59
15932;BME280;8065;49.520;11.284;2023-04-08T08:53:01;97883.53;;;9.81;80.43
15932;BME280;8065;49.520;11.284;2023-04-08T08:55:29;97879.44;;;9.75;80.59
15932;BME280;8065;49.520;11.284;2023-04-08T08:57:58;97880.03;;;9.72;81.50
15932;BME280;8065;49.520;11.284;2023-04-08T09:00:30;97881.22;;;9.88;79.38
15932;BME280;8065;49.520;11.284;2023-04-08T09:03:13;97883.28;;;9.91;79.61
15932;BME280;8065;49.520;11.284;2023-04-08T09:05:48;97888.53;;;10.05;78.99
15932;BME280;8065;49.520;11.284;2023-04-08T09:08:28;97887.97;;;9.94;79.11
15932;BME280;8065;49.520;11.284;2023-04-08T09:11:09;97896.78;;;10.03;78.68
15932;BME280;8065;49.520;11.284;2023-04-08T09:13:36;97897.03;;;9.93;80.28
15932;BME280;8065;49.520;11.284;2023-04-08T09:16:04;97900.78;;;9.92;79.43
15932;BME280;8065;49.520;11.284;2023-04-08T09:18:31;97895.66;;;9.96;79.64
15932;BME280;8065;49.520;11.284;2023-04-08T09:21:00;97908.13;;;9.95;78.55
15932;BME280;8065;49.520;11.284;2023-04-08T09:23:44;97912.19;;;9.93;79.40
15932;BME280;8065;49.520;11.284;2023-04-08T09:26:12;97909.69;;;9.96;78.99
15932;BME280;8065;49.520;11.284;2023-04-08T09:28:40;97906.19;;;10.09;79.04
15932;BME280;8065;49.520;11.284;2023-04-08T09:31:20;97905.41;;;10.09;79.52
15932;BME280;8065;49.520;11.284;2023-04-08T09:33:48;97912.91;;;10.07;79.05
15932;BME280;8065;49.520;11.284;2023-04-08T09:36:16;97909.34;;;10.11;79.59
15932;BME280;8065;49.520;11.284;2023-04-08T09:38:43;97909.34;;;10.11;79.31
15932;BME280;8065;49.520;11.284;2023-04-08T09:41:12;97905.38;;;10.23;78.31
15932;BME280;8065;49.520;11.284;2023-04-08T09:43:41;97909.94;;;10.31;78.36
15932;BME280;8065;49.520;11.284;2023-04-08T09:46:13;97910.28;;;10.15;78.88
15932;BME280;8065;49.520;11.284;2023-04-08T09:48:46;97904.75;;;10.26;79.09
15932;BME280;8065;49.520;11.284;2023-04-08T09:51:17;97899.03;;;10.41;79.08
15932;BME280;8065;49.520;11.284;2023-04-08T09:53:46;97905.78;;;10.47;78.69
15932;BME280;8065;49.520;11.284;2023-04-08T09:56:14;97901.91;;;10.53;77.80
15932;BME280;8065;49.520;11.284;2023-04-08T09:58:50;97901.41;;;10.51;77.98
15932;BME280;8065;49.520;11.284;2023-04-08T10:01:23;97900.81;;;10.54;78.12
15932;BME280;8065;49.520;11.284;2023-04-08T10:03:53;97901.94;;;10.62;77.17
15932;BME280;8065;49.520;11.284;2023-04-08T10:06:26;97907.84;;;10.59;78.44
15932;BME280;8065;49.520;11.284;2023-04-08T10:08:54;97909.47;;;10.68;77.80
15932;BME280;8065;49.520;11.284;2023-04-08T10:11:21;97900.41;;;10.78;78.05
15932;BME280;8065;49.520;11.284;2023-04-08T10:13:48;97907.13;;;10.75;77.80
15932;BME280;8065;49.520;11.284;2023-04-08T10:16:20;97899.81;;;10.81;77.51
15932;BME280;8065;49.520;11.284;2023-04-08T10:18:47;97901.53;;;10.86;77.07
15932;BME280;8065;49.520;11.284;2023-04-08T10:21:37;97895.94;;;10.96;76.81
15932;BME280;8065;49.520;11.284;2023-04-08T10:24:06;97901.25;;;10.96;76.89
15932;BME280;8065;49.520;11.284;2023-04-08T10:26:35;97903.91;;;10.96;78.45
15932;BME280;8065;49.520;11.284;2023-04-08T10:29:30;97897.78;;;10.87;80.31
15932;BME280;8065;49.520;11.284;2023-04-08T10:31:57;97902.03;;;10.96;79.35
15932;BME280;8065;49.520;11.284;2023-04-08T10:34:25;97892.53;;;11.04;78.16
15932;BME280;8065;49.520;11.284;2023-04-08T10:36:55;97887.19;;;11.04;77.75
15932;BME280;8065;49.520;11.284;2023-04-08T10:39:23;97894.44;;;11.21;77.64
15932;BME280;8065;49.520;11.284;2023-04-08T10:41:50;97889.25;;;11.15;77.78
15932;BME280;8065;49.520;11.284;2023-04-08T10:44:17;97901.78;;;11.32;77.04
15932;BME280;8065;49.520;11.284;2023-04-08T10:46:44;97894.59;;;11.24;76.46
15932;BME280;8065;49.520;11.284;2023-04-08T10:49:11;97895.22;;;11.21;78.35
15932;BME280;8065;49.520;11.284;2023-04-08T10:51:37;97892.22;;;11.31;77.93
15932;BME280;8065;49.520;11.284;2023-04-08T10:54:09;97884.88;;;11.54;77.33
15932;BME280;8065;49.520;11.284;2023-04-08T10:56:43;97884.25;;;11.66;76.88
15932;BME280;8065;49.520;11.284;2023-04-08T10:59:10;97879.84;;;11.70;76.33
15932;BME280;8065;49.520;11.284;2023-04-08T11:01:37;97891.91;;;11.76;76.25
15932;BME280;8065;49.520;11.284;2023-04-08T11:04:15;97888.66;;;11.79;75.47
15932;BME280;8065;49.520;11.284;2023-04-08T11:06:44;97891.91;;;11.76;76.72
15932;BME280;8065;49.520;11.284;2023-04-08T11:09:13;97885.97;;;11.70;76.83
15932;BME280;8065;49.520;11.284;2023-04-08T11:11:41;97889.44;;;11.79;76.36
15932;BME280;8065;49.520;11.284;2023-04-08T11:14:08;97897.72;;;11.69;76.82
15932;BME280;8065;49.520;11.284;2023-04-08T11:16:36;97895.84;;;11.78;75.65
15932;BME280;8065;49.520;11.284;2023-04-08T11:19:03;97898.22;;;11.80;76.44
15932;BME280;8065;49.520;11.284;2023-04-08T11:21:30;97895.84;;;11.87;76.16
15932;BME280;8065;49.520;11.284;2023-04-08T11:23:57;97903.22;;;11.90;75.87
15932;BME280;8065;49.520;11.284;2023-04-08T11:26:25;97895.22;;;11.64;76.59
15932;BME280;8065;49.520;11.284;2023-04-08T11:28:53;97900.22;;;11.74;75.91
15932;BME280;8065;49.520;11.284;2023-04-08T11:31:20;97894.59;;;11.85;76.35
15932;BME280;8065;49.520;11.284;2023-04-08T11:33:48;97896.00;;;11.99;75.48
15932;BME280;8065;49.520;11.284;2023-04-08T11:36:17;97887.66;;;12.09;75.36
15932;BME280;8065;49.520;11.284;2023-04-08T11:38:43;97887.63;;;12.18;75.95
15932;BME280;8065;49.520;11.284;2023-04-08T11:41:12;97883.38;;;12.17;75.42
15932;BME280;8065;49.520;11.284;2023-04-08T11:43:50;97886.78;;;12.35;74.39
15932;BME280;8065;49.520;11.284;2023-04-08T11:46:16;97881.03;;;12.15;74.89
15932;BME280;8065;49.520;11.284;2023-04-08T11:48:56;97881.63;;;12.30;73.76
15932;BME280;8065;49.520;11.284;2023-04-08T11:51:23;97878.78;;;12.35;73.20
15932;BME280;8065;49.520;11.284;2023-04-08T11:53:49;97881.03;;;12.24;73.24
15932;BME280;8065;49.520;11.284;2023-04-08T11:56:17;97885.56;;;12.24;73.80
15932;BME280;8065;49.520;11.284;2023-04-08T11:58:45;97882.25;;;12.27;73.61
15932;BME280;8065;49.520;11.284;2023-04-08T12:01:12;97886.50;;;12.28;73.02
15932;BME280;8065;49.520;11.284;2023-04-08T12:03:38;97891.28;;;11.96;75.37
15932;BME280;8065;49.520;11.284;2023-04-08T12:06:05;97885.66;;;11.89;73.86
15932;BME280;8065;49.520;11.284;2023-04-08T12:08:33;97886.00;;;11.79;73.47
15932;BME280;8065;49.520;11.284;2023-04-08T12:10:59;97892.09;;;11.88;73.58
15932;BME280;8065;49.520;11.284;2023-04-08T12:13:26;97894.59;;;11.85;73.87
15932;BME280;8065;49.520;11.284;2023-04-08T12:15:54;97892.69;;;11.68;73.46
15932;BME280;8065;49.520;11.284;2023-04-08T12:18:21;97895.84;;;11.78;73.29
15932;BME280;8065;49.520;11.284;2023-04-08T12:20:48;97897.41;;;11.71;73.83
15932;BME280;8065;49.520;11.284;2023-04-08T12:23:14;97897.88;;;11.56;74.29
15932;BME280;8065;49.520;11.284;2023-04-08T12:25:41;97901.31;;;11.56;74.06
15932;BME280;8065;49.520;11.284;2023-04-08T12:28:07;97895.06;;;11.52;75.16
15932;BME280;8065;49.520;11.284;2023-04-08T12:30:35;97901.78;;;11.75;73.70
15932;BME280;8065;49.520;11.284;2023-04-08T12:33:03;97903.22;;;11.90;73.00
15932;BME280;8065;49.520;11.284;2023-04-08T12:35:30;97903.50;;;11.97;73.04
15932;BME280;8065;49.520;11.284;2023-04-08T12:37:56;97900.22;;;12.09;72.82
15932;BME280;8065;49.520;11.284;2023-04-08T12:40:23;97909.16;;;12.04;74.00
15932;BME280;8065;49.520;11.284;2023-04-08T12:42:50;97909.00;;;12.01;73.03
15932;BME280;8065;49.520;11.284;2023-04-08T12:45:17;97914.78;;;12.11;72.98
15932;BME280;8065;49.520;11.284;2023-04-08T12:47:43;97909.00;;;11.92;73.20
15932;BME280;8065;49.520;11.284;2023-04-08T12:50:11;97913.78;;;12.25;72.14
15932;BME280;8065;49.520;11.284;2023-04-08T12:52:38;97910.34;;;12.24;72.23
15932;BME280;8065;49.520;11.284;2023-04-08T12:55:06;97908.50;;;12.07;72.80
15932;BME280;8065;49.520;11.284;2023-04-08T12:57:32;97912.22;;;12.24;72.67
15932;BME280;8065;49.520;11.284;2023-04-08T12:59:59;97912.69;;;12.26;72.13
15932;BME280;8065;49.520;11.284;2023-04-08T13:02:25;97906.47;;;12.13;72.36
15932;BME280;8065;49.520;11.284;2023-04-08T13:04:52;97916.91;;;12.27;71.83
15932;BME280;8065;49.520;11.284;2023-04-08T13:07:20;97910.09;;;11.91;72.35
15932;BME280;8065;49.520;11.284;2023-04-08T13:09:47;97917.38;;;12.20;71.24
15932;BME280;8065;49.520;11.284;2023-04-08T13:12:14;97909.53;;;12.32;71.34
15932;BME280;8065;49.520;11.284;2023-04-08T13:14:41;97924.00;;;12.14;72.00